St. Moritz, Switzerland
Current Conditions -  °F | °C
As of 1:20 PM on Monday 20 Oct 2014 (Local Time) from LSZS Reporting Station
Clear Clear  
Wind Chill: 55°   Ceiling: Unl
Heat Index: 55°   Visibility: 6mi
Dew Point: 36°   Wind: 3mph
Humidity: 47%   Direction: NA
Pressure: 30.27"   Gusts: NA
Location:  46.5°N, 9.84°E
Report Text: LSZS 201120Z VRB03KT CAVOK 13/02 Q1025
Loading
Personal Weather Stations






























Interactive Weather Map
Tropical Storm Tracking
New forecast layout! Learn more

10-Day Weather Forecast

Advertisements
Track Severe Weather on mobile